Weather History for Versailles, OH

Change the Weather History Date:

Sunday, December 8, 2013

  Actual Average (KDAY) Record (KDAY)
Temperature  
Mean Temperature 21 °F 33 °F  
Max Temperature 30 °F 40 °F 66 °F (1966)
Min Temperature 12 °F 26 °F -3 °F (1917)
Degree Days  
Heating Degree Days 44 32  
Month to date heating degree days 243  
Since 1 July heating degree days 1354  
Cooling Degree Days 0 0  
Month to date cooling degree days 0  
Year to date cooling degree days 891  
Moisture  
Dew Point 21 °F    
Average Humidity 92    
Maximum Humidity 100    
Minimum Humidity 80    
Precipitation  
Precipitation 0.00 in 0.11 in 1.49 in (1924)
Month to date precipitation 0.83  
Year to date precipitation 38.76  
Snow  
Snow 0.00 in 0.20 in 6.50 in (1917)
Month to date snowfall 0.8  
Since 1 July snowfall 1.8  
Snow Depth -    
Sea Level Pressure  
Sea Level Pressure 30.24 in    
Wind  
Wind Speed 5 mph (East)    
Max Wind Speed 13 mph    
Max Gust Speed 16 mph    
Visibility 7 miles    
Events Snow    
T = Trace of Precipitation, MM = Missing Value Source: NWS Daily Summary

Daily Weather History Graph

Daily Weather History Graph

Search for Another Location

Airport:

Trip Planner

Search our weather history database for the weather conditions in past years. The results will help you decide how hot, cold, wet, or windy it might be!

Date:

Astronomy

Dec. 08, 2013 Rise Set
Actual Time 7:48 AM EST 5:12 PM EST
Civil Twilight 7:17 AM EST 5:42 PM EST
Nautical Twilight 6:43 AM EST 6:16 PM EST
Astronomical Twilight 6:10 AM EST 6:49 PM EST
Moon 12:07 PM EST (12/8) No Moon Set
Length of Visible Light 10h 24m
Length of Day
9h 23m
Waxing Crescent, 40% of the Moon is Illuminated
Dec 8
Waxing Crescent
Dec 9
First Quarter
Dec 17
Full
Dec 25
Last Quarter
Jan 1
New

Hourly Weather History & Observations

Time (EST) Temp. Windchill Dew Point Humidity Pressure Visibility Wind Dir Wind Speed Gust Speed Precip Events Conditions
12:15 AM 12.2 °F 6.1 °F 10.4 °F 92% 30.50 in 10.0 mi NE 3.5 mph - N/A   Clear
12:35 AM 12.2 °F 6.1 °F 10.4 °F 92% 30.51 in 10.0 mi NE 3.5 mph - N/A   Clear
12:55 AM 12.2 °F - 10.4 °F 92% 30.50 in 10.0 mi Calm Calm - N/A   Clear
1:15 AM 12.2 °F - 12.2 °F 100% 30.49 in 10.0 mi Calm Calm - N/A   Clear
1:35 AM 14.0 °F - 12.2 °F 93% 30.48 in 10.0 mi Calm Calm - N/A   Clear
1:55 AM 14.0 °F - 14.0 °F 100% 30.49 in 10.0 mi Calm Calm - N/A   Clear
2:15 AM 15.8 °F - 14.0 °F 93% 30.49 in 10.0 mi Calm Calm - N/A   Clear
2:35 AM 17.6 °F 8.2 °F 15.8 °F 93% 30.46 in 10.0 mi East 6.9 mph - N/A   Clear
2:55 AM 17.6 °F 10.7 °F 15.8 °F 93% 30.46 in 10.0 mi East 4.6 mph - N/A   Clear
3:15 AM 17.6 °F 10.7 °F 17.6 °F 100% 30.47 in 10.0 mi East 4.6 mph - N/A   Scattered Clouds
3:35 AM 17.6 °F - 17.6 °F 100% 30.45 in 10.0 mi Calm Calm - N/A   Mostly Cloudy
3:55 AM 17.6 °F - 17.6 °F 100% 30.46 in 10.0 mi Calm Calm - N/A   Mostly Cloudy
4:15 AM 19.4 °F 14.3 °F 17.6 °F 93% 30.44 in 10.0 mi East 3.5 mph - N/A   Overcast
4:35 AM 19.4 °F 12.8 °F 17.6 °F 93% 30.43 in 10.0 mi ENE 4.6 mph - N/A   Overcast
4:55 AM 19.4 °F 10.4 °F 17.6 °F 93% 30.42 in 10.0 mi ENE 6.9 mph - N/A   Overcast
5:15 AM 19.4 °F 12.8 °F 17.6 °F 93% 30.42 in 10.0 mi ENE 4.6 mph - N/A   Mostly Cloudy
5:35 AM 19.4 °F 12.8 °F 17.6 °F 93% 30.43 in 10.0 mi East 4.6 mph - N/A   Mostly Cloudy
5:55 AM 19.4 °F 12.8 °F 17.6 °F 93% 30.42 in 10.0 mi East 4.6 mph - N/A   Overcast
6:15 AM 19.4 °F 10.4 °F 15.8 °F 86% 30.41 in 10.0 mi ENE 6.9 mph - N/A   Overcast
6:35 AM 19.4 °F 11.5 °F 17.6 °F 93% 30.40 in 10.0 mi East 5.8 mph - N/A   Overcast
6:55 AM 19.4 °F 10.4 °F 15.8 °F 86% 30.39 in 10.0 mi ENE 6.9 mph - N/A   Overcast
7:15 AM 21.2 °F 13.6 °F 17.6 °F 86% 30.38 in 10.0 mi ENE 5.8 mph - N/A   Overcast
7:35 AM 21.2 °F 10.1 °F 17.6 °F 86% 30.36 in 10.0 mi NE 10.4 mph - N/A   Overcast
7:55 AM 21.2 °F 13.6 °F 17.6 °F 86% 30.36 in 10.0 mi East 5.8 mph - N/A   Overcast
8:15 AM 21.2 °F 14.9 °F 17.6 °F 86% 30.37 in 10.0 mi East 4.6 mph - N/A   Overcast
8:35 AM 21.2 °F 13.6 °F 17.6 °F 86% 30.36 in 10.0 mi ENE 5.8 mph - N/A   Mostly Cloudy
8:55 AM 21.2 °F 12.6 °F 17.6 °F 86% 30.34 in 10.0 mi East 6.9 mph - N/A   Mostly Cloudy
9:15 AM 21.2 °F 12.6 °F 17.6 °F 86% 30.34 in 10.0 mi ENE 6.9 mph - N/A   Overcast
9:35 AM 21.2 °F 11.7 °F 17.6 °F 86% 30.35 in 10.0 mi East 8.1 mph - N/A   Mostly Cloudy
9:55 AM 23.0 °F 13.1 °F 17.6 °F 80% 30.34 in 10.0 mi East 9.2 mph - N/A   Mostly Cloudy
10:15 AM 23.0 °F 15.8 °F 17.6 °F 80% 30.34 in 10.0 mi ENE 5.8 mph - N/A   Scattered Clouds
10:35 AM 23.0 °F 13.1 °F 17.6 °F 80% 30.33 in 10.0 mi East 9.2 mph - N/A   Scattered Clouds
10:55 AM 23.0 °F 12.4 °F 17.6 °F 80% 30.32 in 10.0 mi East 10.4 mph - N/A   Mostly Cloudy
11:15 AM 23.0 °F 11.7 °F 19.4 °F 86% 30.30 in 5.0 mi East 11.5 mph - N/A Snow Light Snow
11:35 AM 24.8 °F 16.1 °F 19.4 °F 80% 30.29 in 7.0 mi East 8.1 mph - N/A Snow Light Snow
11:55 AM 23.0 °F 14.7 °F 21.2 °F 93% 30.28 in 4.0 mi East 6.9 mph - N/A Snow Light Snow
12:15 PM 24.8 °F 14.0 °F 21.2 °F 86% 30.26 in 7.0 mi East 11.5 mph - N/A   Overcast
12:35 PM 24.8 °F 14.0 °F 21.2 °F 86% 30.24 in 7.0 mi East 11.5 mph - N/A   Overcast
12:55 PM 24.8 °F 16.9 °F 21.2 °F 86% 30.24 in 4.0 mi East 6.9 mph - N/A   Overcast
1:15 PM 26.6 °F 16.2 °F 21.2 °F 80% 30.22 in 2.5 mi East 11.5 mph - N/A Snow Light Snow
1:35 PM 26.6 °F 16.8 °F 23.0 °F 86% 30.21 in 3.0 mi East 10.4 mph - N/A   Overcast
1:55 PM 26.6 °F 16.2 °F 23.0 °F 86% 30.18 in 4.0 mi East 11.5 mph - N/A   Overcast
2:15 PM 26.6 °F 17.5 °F 23.0 °F 86% 30.16 in 3.0 mi East 9.2 mph - N/A   Overcast
2:35 PM 26.6 °F 18.2 °F 23.0 °F 86% 30.16 in 3.0 mi East 8.1 mph - N/A   Overcast
2:55 PM 26.6 °F 19.1 °F 23.0 °F 86% 30.15 in 7.0 mi East 6.9 mph - N/A   Overcast
3:15 PM 26.6 °F 16.8 °F 24.8 °F 93% 30.13 in 5.0 mi East 10.4 mph - N/A   Overcast
3:35 PM 26.6 °F 17.5 °F 24.8 °F 93% 30.12 in 7.0 mi East 9.2 mph - N/A   Overcast
3:55 PM 26.6 °F 17.5 °F 24.8 °F 93% 30.12 in 10.0 mi East 9.2 mph - N/A   Overcast
4:15 PM 26.6 °F 16.2 °F 24.8 °F 93% 30.11 in 10.0 mi East 11.5 mph 16.1 mph N/A   Overcast
4:35 PM 26.6 °F 15.7 °F 24.8 °F 93% 30.09 in 7.0 mi East 12.7 mph - N/A Snow Light Snow
4:55 PM 26.6 °F 16.2 °F 24.8 °F 93% 30.07 in 5.0 mi ESE 11.5 mph - N/A Snow Light Snow
5:15 PM 26.6 °F 17.5 °F 24.8 °F 93% 30.07 in 10.0 mi ESE 9.2 mph - N/A   Overcast
5:35 PM 26.6 °F 17.5 °F 24.8 °F 93% 30.07 in 10.0 mi ESE 9.2 mph - N/A   Overcast
5:55 PM 26.6 °F 19.1 °F 26.6 °F 100% 30.07 in 10.0 mi East 6.9 mph - N/A   Overcast
6:15 PM 26.6 °F 17.5 °F 26.6 °F 100% 30.07 in 7.0 mi ESE 9.2 mph - N/A   Overcast
6:35 PM 26.6 °F 19.1 °F 26.6 °F 100% 30.06 in 4.0 mi ESE 6.9 mph - N/A   Overcast
6:55 PM 26.6 °F 17.5 °F 26.6 °F 100% 30.04 in 2.5 mi ESE 9.2 mph - N/A   Overcast
7:15 PM 26.6 °F 20.0 °F 26.6 °F 100% 30.03 in 2.0 mi ESE 5.8 mph - N/A   Overcast
7:35 PM 26.6 °F 18.2 °F 26.6 °F 100% 30.03 in 2.5 mi SE 8.1 mph - N/A   Overcast
7:55 PM 26.6 °F 20.0 °F 26.6 °F 100% 30.02 in 2.0 mi SE 5.8 mph - N/A   Overcast
8:15 PM 28.4 °F 20.4 °F 28.4 °F 100% 30.02 in 1.5 mi SE 8.1 mph - N/A   Overcast
8:35 PM 28.4 °F 19.7 °F 28.4 °F 100% 30.01 in 1.8 mi SSE 9.2 mph - N/A   Overcast
8:55 PM 28.4 °F 20.4 °F 28.4 °F 100% 30.02 in 1.8 mi SSE 8.1 mph - N/A   Overcast
9:15 PM 28.4 °F 21.2 °F 28.4 °F 100% 30.01 in 2.0 mi SSE 6.9 mph - N/A   Overcast
9:35 PM 28.4 °F 23.3 °F 28.4 °F 100% 30.00 in 2.0 mi South 4.6 mph - N/A   Overcast
9:55 PM 28.4 °F 22.2 °F 28.4 °F 100% 29.99 in 3.0 mi South 5.8 mph - N/A   Overcast
10:15 PM 28.4 °F 21.2 °F 28.4 °F 100% 29.99 in 3.0 mi South 6.9 mph - N/A   Overcast
10:35 PM 28.4 °F 24.6 °F 28.4 °F 100% 29.99 in 2.5 mi South 3.5 mph - N/A   Overcast
10:55 PM 30.2 °F 25.4 °F 30.2 °F 100% 29.98 in 2.0 mi South 4.6 mph - N/A   Overcast
11:15 PM 30.2 °F 23.4 °F 30.2 °F 100% 29.97 in 3.0 mi South 6.9 mph - N/A   Overcast
11:35 PM 30.2 °F 22.6 °F 30.2 °F 100% 29.96 in 2.5 mi South 8.1 mph - N/A   Overcast
11:55 PM 30.2 °F 22.6 °F 30.2 °F 100% 29.97 in 3.0 mi SSW 8.1 mph - N/A   Overcast